DIYO

Details ICAO DIYO (ASK)
Name YAMOUSSOUKRO
Region Côte d'Ivoire
Timezone Africa/Abidjan (UTC+0.0)
Plans Departing 6
Arriving 11
Stats Elevation 699 ft / 213 m (AMSL)
Location 6.903166° -5.365579°
Runways 1
Magnetic Variation 4.636° W
Sunrise 2018-05-24 06:05:37 UTC / 2018-05-24 06:05:37 Local
Sunset 2018-05-24 18:33:51 UTC / 2018-05-24 18:33:51 Local
Advertisement - Login to hide

Runways

ID Width Length Bearing (true) Bearing (mag) Surface Threshold Offset Overrun Length
05 148 ft / 45 m 9,946 ft / 3,032 m 41.92° 46.56° Asphalt 0 ft / 0 m 330 ft / 101 m
23 148 ft / 45 m 9,946 ft / 3,032 m 221.92° 226.56° Asphalt 0 ft / 0 m 330 ft / 101 m

Map

Weather


0- 5 10 15 20 25 30 35+ Temperature / ° C

Clouds and Precipitation
Forecast for 2018-05-24 12:00 UTC. Updated 3 hours ago

Ground ~20,000 ft ~40,000 ft Winds

METAR

DIYO 241300Z 14004KT 9999 BKN015 31/24 Q1013 NOSIG

TAF

TAF DIYO 241100Z 2412/2512 23010KT 9999 SCT013 TEMPO 2416/2422 TS BKN013 FEW025CB PROB30 TEMPO 2423/2503 TS BKN013 FEW025CB

Frequencies

Tower 118.50 MHz TWR
Warning: Do not use this data for real-world aviation or navigation. No guarantee of current accuracy is given.